sensor_id;sensor_type;location;lat;lon;timestamp;P1;durP1;ratioP1;P2;durP2;ratioP2
32932;SDS011;19444;50.518;10.870;2023-06-14T00:01:33;5.63;;;3.90;;
32932;SDS011;19444;50.518;10.870;2023-06-14T00:04:30;4.22;;;3.22;;
32932;SDS011;19444;50.518;10.870;2023-06-14T00:07:37;5.00;;;3.03;;
32932;SDS011;19444;50.518;10.870;2023-06-14T00:10:39;6.93;;;4.55;;
32932;SDS011;19444;50.518;10.870;2023-06-14T00:13:37;9.48;;;5.35;;
32932;SDS011;19444;50.518;10.870;2023-06-14T00:16:34;5.35;;;4.18;;
32932;SDS011;19444;50.518;10.870;2023-06-14T00:19:31;6.95;;;4.22;;
32932;SDS011;19444;50.518;10.870;2023-06-14T00:22:30;5.28;;;3.90;;
32932;SDS011;19444;50.518;10.870;2023-06-14T00:25:29;4.30;;;3.28;;
32932;SDS011;19444;50.518;10.870;2023-06-14T00:28:26;6.72;;;4.43;;
32932;SDS011;19444;50.518;10.870;2023-06-14T00:31:23;6.53;;;4.57;;
32932;SDS011;19444;50.518;10.870;2023-06-14T00:34:20;5.00;;;3.42;;
32932;SDS011;19444;50.518;10.870;2023-06-14T00:37:16;6.00;;;4.65;;
32932;SDS011;19444;50.518;10.870;2023-06-14T00:40:13;6.22;;;3.90;;
32932;SDS011;19444;50.518;10.870;2023-06-14T00:43:11;5.47;;;4.30;;
32932;SDS011;19444;50.518;10.870;2023-06-14T00:46:07;4.75;;;4.03;;
32932;SDS011;19444;50.518;10.870;2023-06-14T00:49:04;5.70;;;4.68;;
32932;SDS011;19444;50.518;10.870;2023-06-14T00:52:02;8.38;;;4.47;;
32932;SDS011;19444;50.518;10.870;2023-06-14T00:55:01;4.63;;;4.13;;
32932;SDS011;19444;50.518;10.870;2023-06-14T00:57:58;6.50;;;4.28;;
32932;SDS011;19444;50.518;10.870;2023-06-14T01:00:55;6.22;;;4.40;;
32932;SDS011;19444;50.518;10.870;2023-06-14T01:03:52;7.25;;;4.22;;
32932;SDS011;19444;50.518;10.870;2023-06-14T01:10:32;6.70;;;4.13;;
32932;SDS011;19444;50.518;10.870;2023-06-14T01:14:16;7.80;;;4.18;;
32932;SDS011;19444;50.518;10.870;2023-06-14T01:17:14;5.22;;;4.07;;
32932;SDS011;19444;50.518;10.870;2023-06-14T01:20:13;6.20;;;4.53;;
32932;SDS011;19444;50.518;10.870;2023-06-14T01:23:11;6.00;;;4.45;;
32932;SDS011;19444;50.518;10.870;2023-06-14T01:26:11;5.60;;;4.57;;
32932;SDS011;19444;50.518;10.870;2023-06-14T01:29:08;6.63;;;4.28;;
32932;SDS011;19444;50.518;10.870;2023-06-14T01:32:07;6.10;;;4.50;;
32932;SDS011;19444;50.518;10.870;2023-06-14T01:35:04;7.00;;;4.22;;
32932;SDS011;19444;50.518;10.870;2023-06-14T01:38:02;6.55;;;4.88;;
32932;SDS011;19444;50.518;10.870;2023-06-14T01:41:01;6.07;;;4.65;;
32932;SDS011;19444;50.518;10.870;2023-06-14T01:44:00;7.55;;;4.88;;
32932;SDS011;19444;50.518;10.870;2023-06-14T01:46:59;7.45;;;4.65;;
32932;SDS011;19444;50.518;10.870;2023-06-14T01:49:56;6.82;;;4.68;;
32932;SDS011;19444;50.518;10.870;2023-06-14T01:52:53;5.78;;;4.53;;
32932;SDS011;19444;50.518;10.870;2023-06-14T01:55:50;5.82;;;5.18;;
32932;SDS011;19444;50.518;10.870;2023-06-14T01:58:50;7.20;;;4.55;;
32932;SDS011;19444;50.518;10.870;2023-06-14T02:01:48;5.40;;;4.55;;
32932;SDS011;19444;50.518;10.870;2023-06-14T02:04:44;7.00;;;4.85;;
32932;SDS011;19444;50.518;10.870;2023-06-14T02:07:43;5.95;;;4.97;;
32932;SDS011;19444;50.518;10.870;2023-06-14T02:10:40;9.07;;;4.53;;
32932;SDS011;19444;50.518;10.870;2023-06-14T02:13:37;8.70;;;4.30;;
32932;SDS011;19444;50.518;10.870;2023-06-14T02:16:34;7.43;;;4.78;;
32932;SDS011;19444;50.518;10.870;2023-06-14T02:19:32;5.20;;;4.70;;
32932;SDS011;19444;50.518;10.870;2023-06-14T02:22:29;6.10;;;5.07;;
32932;SDS011;19444;50.518;10.870;2023-06-14T02:25:27;5.80;;;4.30;;
32932;SDS011;19444;50.518;10.870;2023-06-14T02:28:24;6.20;;;4.40;;
32932;SDS011;19444;50.518;10.870;2023-06-14T02:31:21;7.68;;;4.90;;
32932;SDS011;19444;50.518;10.870;2023-06-14T02:34:18;7.68;;;4.95;;
32932;SDS011;19444;50.518;10.870;2023-06-14T02:37:16;6.35;;;4.38;;
32932;SDS011;19444;50.518;10.870;2023-06-14T02:40:13;5.10;;;3.80;;
32932;SDS011;19444;50.518;10.870;2023-06-14T02:43:10;5.88;;;4.28;;
32932;SDS011;19444;50.518;10.870;2023-06-14T02:46:07;7.55;;;4.63;;
32932;SDS011;19444;50.518;10.870;2023-06-14T02:49:04;8.68;;;4.43;;
32932;SDS011;19444;50.518;10.870;2023-06-14T02:52:01;6.68;;;4.32;;
32932;SDS011;19444;50.518;10.870;2023-06-14T02:55:00;5.20;;;3.83;;
32932;SDS011;19444;50.518;10.870;2023-06-14T02:57:56;5.90;;;4.65;;
32932;SDS011;19444;50.518;10.870;2023-06-14T03:00:53;5.18;;;3.95;;
32932;SDS011;19444;50.518;10.870;2023-06-14T03:03:51;6.72;;;3.90;;
32932;SDS011;19444;50.518;10.870;2023-06-14T03:06:47;8.30;;;4.07;;
32932;SDS011;19444;50.518;10.870;2023-06-14T03:09:46;7.22;;;4.78;;
32932;SDS011;19444;50.518;10.870;2023-06-14T03:12:45;5.32;;;3.80;;
32932;SDS011;19444;50.518;10.870;2023-06-14T03:15:42;5.70;;;4.10;;
32932;SDS011;19444;50.518;10.870;2023-06-14T03:18:39;6.45;;;4.57;;
32932;SDS011;19444;50.518;10.870;2023-06-14T03:21:36;8.20;;;4.70;;
32932;SDS011;19444;50.518;10.870;2023-06-14T03:24:33;5.55;;;4.43;;
32932;SDS011;19444;50.518;10.870;2023-06-14T03:27:33;5.90;;;4.22;;
32932;SDS011;19444;50.518;10.870;2023-06-14T03:30:30;5.38;;;4.15;;
32932;SDS011;19444;50.518;10.870;2023-06-14T03:33:27;6.30;;;4.90;;
32932;SDS011;19444;50.518;10.870;2023-06-14T03:36:24;6.15;;;4.00;;
32932;SDS011;19444;50.518;10.870;2023-06-14T03:39:21;7.25;;;4.80;;
32932;SDS011;19444;50.518;10.870;2023-06-14T03:42:18;5.05;;;3.72;;
32932;SDS011;19444;50.518;10.870;2023-06-14T03:45:15;5.82;;;4.32;;
32932;SDS011;19444;50.518;10.870;2023-06-14T03:48:12;5.82;;;4.18;;
32932;SDS011;19444;50.518;10.870;2023-06-14T03:51:09;4.88;;;4.10;;
32932;SDS011;19444;50.518;10.870;2023-06-14T03:54:06;5.80;;;4.30;;
32932;SDS011;19444;50.518;10.870;2023-06-14T03:57:23;4.75;;;4.00;;
32932;SDS011;19444;50.518;10.870;2023-06-14T04:00:20;5.32;;;4.32;;
32932;SDS011;19444;50.518;10.870;2023-06-14T04:03:17;10.13;;;6.07;;
32932;SDS011;19444;50.518;10.870;2023-06-14T04:06:16;5.55;;;4.55;;
32932;SDS011;19444;50.518;10.870;2023-06-14T04:09:16;7.00;;;4.03;;
32932;SDS011;19444;50.518;10.870;2023-06-14T04:12:15;7.03;;;4.30;;
32932;SDS011;19444;50.518;10.870;2023-06-14T04:15:12;4.97;;;4.10;;
32932;SDS011;19444;50.518;10.870;2023-06-14T04:18:16;8.00;;;4.53;;
32932;SDS011;19444;50.518;10.870;2023-06-14T04:21:19;5.35;;;4.07;;
32932;SDS011;19444;50.518;10.870;2023-06-14T04:24:16;6.05;;;3.58;;
32932;SDS011;19444;50.518;10.870;2023-06-14T04:27:13;5.22;;;3.60;;
32932;SDS011;19444;50.518;10.870;2023-06-14T04:30:10;7.30;;;3.97;;
32932;SDS011;19444;50.518;10.870;2023-06-14T04:33:07;6.20;;;4.30;;
32932;SDS011;19444;50.518;10.870;2023-06-14T04:36:06;6.57;;;4.43;;
32932;SDS011;19444;50.518;10.870;2023-06-14T04:39:03;7.60;;;4.20;;
32932;SDS011;19444;50.518;10.870;2023-06-14T04:42:00;5.57;;;3.70;;
32932;SDS011;19444;50.518;10.870;2023-06-14T04:44:59;5.57;;;3.72;;
32932;SDS011;19444;50.518;10.870;2023-06-14T04:47:58;7.03;;;3.88;;
32932;SDS011;19444;50.518;10.870;2023-06-14T04:50:55;5.80;;;3.97;;
32932;SDS011;19444;50.518;10.870;2023-06-14T04:53:52;5.38;;;3.72;;
32932;SDS011;19444;50.518;10.870;2023-06-14T04:56:53;5.72;;;4.43;;
32932;SDS011;19444;50.518;10.870;2023-06-14T04:59:51;4.78;;;3.50;;
32932;SDS011;19444;50.518;10.870;2023-06-14T05:02:51;4.88;;;3.10;;
32932;SDS011;19444;50.518;10.870;2023-06-14T05:05:50;5.05;;;2.63;;
32932;SDS011;19444;50.518;10.870;2023-06-14T05:08:47;5.30;;;3.78;;
32932;SDS011;19444;50.518;10.870;2023-06-14T05:11:43;4.82;;;3.47;;
32932;SDS011;19444;50.518;10.870;2023-06-14T05:14:41;6.03;;;3.60;;
32932;SDS011;19444;50.518;10.870;2023-06-14T05:17:37;5.07;;;3.13;;
32932;SDS011;19444;50.518;10.870;2023-06-14T05:20:36;7.05;;;3.72;;
32932;SDS011;19444;50.518;10.870;2023-06-14T05:23:33;3.17;;;2.47;;
32932;SDS011;19444;50.518;10.870;2023-06-14T05:26:30;5.47;;;3.80;;
32932;SDS011;19444;50.518;10.870;2023-06-14T05:29:27;4.13;;;2.90;;
32932;SDS011;19444;50.518;10.870;2023-06-14T05:32:26;4.60;;;3.03;;
32932;SDS011;19444;50.518;10.870;2023-06-14T05:35:23;3.75;;;2.47;;
32932;SDS011;19444;50.518;10.870;2023-06-14T05:38:22;8.03;;;3.93;;
32932;SDS011;19444;50.518;10.870;2023-06-14T05:41:19;4.60;;;3.40;;
32932;SDS011;19444;50.518;10.870;2023-06-14T05:44:17;5.32;;;3.20;;
32932;SDS011;19444;50.518;10.870;2023-06-14T05:47:13;4.22;;;2.65;;
32932;SDS011;19444;50.518;10.870;2023-06-14T05:50:11;4.72;;;3.60;;
32932;SDS011;19444;50.518;10.870;2023-06-14T05:53:07;4.53;;;3.30;;
32932;SDS011;19444;50.518;10.870;2023-06-14T05:56:04;5.60;;;4.22;;
32932;SDS011;19444;50.518;10.870;2023-06-14T05:59:01;4.68;;;3.20;;
32932;SDS011;19444;50.518;10.870;2023-06-14T06:01:58;5.43;;;3.25;;
32932;SDS011;19444;50.518;10.870;2023-06-14T06:04:55;4.75;;;2.47;;
32932;SDS011;19444;50.518;10.870;2023-06-14T06:07:52;6.78;;;3.38;;
32932;SDS011;19444;50.518;10.870;2023-06-14T06:10:49;5.65;;;3.55;;
32932;SDS011;19444;50.518;10.870;2023-06-14T06:13:46;4.20;;;2.72;;
32932;SDS011;19444;50.518;10.870;2023-06-14T06:16:43;3.95;;;2.42;;
32932;SDS011;19444;50.518;10.870;2023-06-14T06:19:40;5.40;;;2.95;;
32932;SDS011;19444;50.518;10.870;2023-06-14T06:22:37;4.25;;;3.30;;
32932;SDS011;19444;50.518;10.870;2023-06-14T06:25:34;5.90;;;3.08;;
32932;SDS011;19444;50.518;10.870;2023-06-14T06:28:31;4.10;;;2.72;;
32932;SDS011;19444;50.518;10.870;2023-06-14T06:31:28;3.85;;;2.88;;
32932;SDS011;19444;50.518;10.870;2023-06-14T06:34:25;6.32;;;3.67;;
32932;SDS011;19444;50.518;10.870;2023-06-14T06:37:22;4.30;;;3.08;;
32932;SDS011;19444;50.518;10.870;2023-06-14T06:40:19;4.22;;;2.88;;
32932;SDS011;19444;50.518;10.870;2023-06-14T06:43:16;3.28;;;2.72;;
32932;SDS011;19444;50.518;10.870;2023-06-14T06:46:14;5.45;;;2.53;;
32932;SDS011;19444;50.518;10.870;2023-06-14T06:49:11;4.65;;;2.65;;
32932;SDS011;19444;50.518;10.870;2023-06-14T06:52:08;6.55;;;3.03;;
32932;SDS011;19444;50.518;10.870;2023-06-14T06:55:05;3.72;;;2.40;;
32932;SDS011;19444;50.518;10.870;2023-06-14T06:58:03;5.60;;;3.03;;
32932;SDS011;19444;50.518;10.870;2023-06-14T07:01:01;3.28;;;2.15;;
32932;SDS011;19444;50.518;10.870;2023-06-14T07:03:58;3.72;;;2.38;;
32932;SDS011;19444;50.518;10.870;2023-06-14T07:06:55;4.05;;;2.65;;
32932;SDS011;19444;50.518;10.870;2023-06-14T07:09:52;4.40;;;3.00;;
32932;SDS011;19444;50.518;10.870;2023-06-14T07:12:50;11.85;;;3.00;;
32932;SDS011;19444;50.518;10.870;2023-06-14T07:15:47;5.95;;;2.75;;
32932;SDS011;19444;50.518;10.870;2023-06-14T07:18:44;5.35;;;3.08;;
32932;SDS011;19444;50.518;10.870;2023-06-14T07:21:41;6.00;;;3.38;;
32932;SDS011;19444;50.518;10.870;2023-06-14T07:24:38;4.88;;;2.80;;
32932;SDS011;19444;50.518;10.870;2023-06-14T07:27:37;4.95;;;2.65;;
32932;SDS011;19444;50.518;10.870;2023-06-14T07:30:34;4.45;;;3.13;;
32932;SDS011;19444;50.518;10.870;2023-06-14T07:33:31;4.53;;;2.80;;
32932;SDS011;19444;50.518;10.870;2023-06-14T07:36:28;4.30;;;2.78;;
32932;SDS011;19444;50.518;10.870;2023-06-14T07:39:25;3.22;;;2.60;;
32932;SDS011;19444;50.518;10.870;2023-06-14T07:42:22;4.65;;;3.10;;
32932;SDS011;19444;50.518;10.870;2023-06-14T07:45:20;4.07;;;3.45;;
32932;SDS011;19444;50.518;10.870;2023-06-14T07:48:17;4.93;;;2.72;;
32932;SDS011;19444;50.518;10.870;2023-06-14T07:51:14;4.65;;;3.00;;
32932;SDS011;19444;50.518;10.870;2023-06-14T07:54:11;6.47;;;2.88;;
32932;SDS011;19444;50.518;10.870;2023-06-14T07:57:08;5.20;;;3.15;;
32932;SDS011;19444;50.518;10.870;2023-06-14T08:00:05;3.33;;;2.55;;
32932;SDS011;19444;50.518;10.870;2023-06-14T08:03:03;3.13;;;2.38;;
32932;SDS011;19444;50.518;10.870;2023-06-14T08:06:00;3.25;;;2.75;;
32932;SDS011;19444;50.518;10.870;2023-06-14T08:08:57;3.97;;;3.00;;
32932;SDS011;19444;50.518;10.870;2023-06-14T08:11:54;4.28;;;3.25;;
32932;SDS011;19444;50.518;10.870;2023-06-14T08:14:52;3.67;;;2.80;;
32932;SDS011;19444;50.518;10.870;2023-06-14T08:18:08;3.55;;;2.85;;
32932;SDS011;19444;50.518;10.870;2023-06-14T08:21:06;4.45;;;2.80;;
32932;SDS011;19444;50.518;10.870;2023-06-14T08:24:03;4.00;;;2.70;;
32932;SDS011;19444;50.518;10.870;2023-06-14T08:27:00;5.43;;;3.10;;
32932;SDS011;19444;50.518;10.870;2023-06-14T08:29:57;5.32;;;2.63;;
32932;SDS011;19444;50.518;10.870;2023-06-14T08:32:54;2.50;;;2.30;;
32932;SDS011;19444;50.518;10.870;2023-06-14T08:36:10;4.10;;;2.72;;
32932;SDS011;19444;50.518;10.870;2023-06-14T08:39:08;4.22;;;2.50;;
32932;SDS011;19444;50.518;10.870;2023-06-14T08:42:05;3.10;;;2.47;;
32932;SDS011;19444;50.518;10.870;2023-06-14T08:45:15;2.88;;;2.60;;
32932;SDS011;19444;50.518;10.870;2023-06-14T08:48:13;5.72;;;3.03;;
32932;SDS011;19444;50.518;10.870;2023-06-14T08:51:13;3.72;;;2.72;;
32932;SDS011;19444;50.518;10.870;2023-06-14T08:54:12;4.70;;;2.83;;
32932;SDS011;19444;50.518;10.870;2023-06-14T08:57:11;3.88;;;3.00;;
32932;SDS011;19444;50.518;10.870;2023-06-14T09:00:11;3.47;;;2.37;;
32932;SDS011;19444;50.518;10.870;2023-06-14T09:03:10;3.22;;;2.67;;
32932;SDS011;19444;50.518;10.870;2023-06-14T09:06:10;6.22;;;2.70;;
32932;SDS011;19444;50.518;10.870;2023-06-14T09:09:09;4.63;;;2.17;;
32932;SDS011;19444;50.518;10.870;2023-06-14T09:12:08;3.85;;;2.25;;
32932;SDS011;19444;50.518;10.870;2023-06-14T09:15:07;3.57;;;2.40;;
32932;SDS011;19444;50.518;10.870;2023-06-14T09:18:05;3.97;;;2.65;;
32932;SDS011;19444;50.518;10.870;2023-06-14T09:21:02;3.50;;;2.80;;
32932;SDS011;19444;50.518;10.870;2023-06-14T09:24:01;3.97;;;2.40;;
32932;SDS011;19444;50.518;10.870;2023-06-14T09:26:58;3.30;;;2.60;;
32932;SDS011;19444;50.518;10.870;2023-06-14T09:29:56;4.00;;;2.60;;
32932;SDS011;19444;50.518;10.870;2023-06-14T09:32:53;4.97;;;2.88;;
32932;SDS011;19444;50.518;10.870;2023-06-14T09:35:51;2.78;;;2.25;;
32932;SDS011;19444;50.518;10.870;2023-06-14T09:38:55;2.63;;;2.38;;
32932;SDS011;19444;50.518;10.870;2023-06-14T09:41:54;2.88;;;2.50;;
32932;SDS011;19444;50.518;10.870;2023-06-14T09:44:52;2.70;;;2.50;;
32932;SDS011;19444;50.518;10.870;2023-06-14T09:47:50;3.40;;;2.80;;
32932;SDS011;19444;50.518;10.870;2023-06-14T09:51:03;4.00;;;2.80;;
32932;SDS011;19444;50.518;10.870;2023-06-14T09:54:02;3.63;;;3.03;;
32932;SDS011;19444;50.518;10.870;2023-06-14T09:57:03;4.90;;;3.05;;
32932;SDS011;19444;50.518;10.870;2023-06-14T10:00:02;4.75;;;2.67;;
32932;SDS011;19444;50.518;10.870;2023-06-14T10:03:13;3.78;;;2.67;;
32932;SDS011;19444;50.518;10.870;2023-06-14T10:06:12;2.88;;;2.55;;
32932;SDS011;19444;50.518;10.870;2023-06-14T10:09:10;3.40;;;2.75;;
32932;SDS011;19444;50.518;10.870;2023-06-14T10:12:08;3.38;;;2.50;;
32932;SDS011;19444;50.518;10.870;2023-06-14T10:15:05;5.18;;;2.55;;
32932;SDS011;19444;50.518;10.870;2023-06-14T10:24:57;6.68;;;2.40;;
32932;SDS011;19444;50.518;10.870;2023-06-14T10:28:14;2.65;;;2.25;;
32932;SDS011;19444;50.518;10.870;2023-06-14T10:31:13;3.58;;;2.45;;
32932;SDS011;19444;50.518;10.870;2023-06-14T10:34:11;2.10;;;1.75;;
32932;SDS011;19444;50.518;10.870;2023-06-14T10:37:16;3.15;;;2.42;;
32932;SDS011;19444;50.518;10.870;2023-06-14T10:40:32;3.88;;;2.05;;
32932;SDS011;19444;50.518;10.870;2023-06-14T10:43:30;2.58;;;2.10;;
32932;SDS011;19444;50.518;10.870;2023-06-14T10:46:28;4.45;;;2.30;;
32932;SDS011;19444;50.518;10.870;2023-06-14T10:49:44;2.33;;;2.13;;
32932;SDS011;19444;50.518;10.870;2023-06-14T10:52:47;3.88;;;2.55;;
32932;SDS011;19444;50.518;10.870;2023-06-14T10:55:44;2.80;;;1.80;;
32932;SDS011;19444;50.518;10.870;2023-06-14T10:58:42;2.65;;;2.40;;
32932;SDS011;19444;50.518;10.870;2023-06-14T11:05:08;4.15;;;2.20;;
32932;SDS011;19444;50.518;10.870;2023-06-14T11:08:35;3.45;;;2.28;;
32932;SDS011;19444;50.518;10.870;2023-06-14T11:11:56;3.13;;;2.10;;
32932;SDS011;19444;50.518;10.870;2023-06-14T11:14:54;7.78;;;2.47;;
32932;SDS011;19444;50.518;10.870;2023-06-14T11:17:51;3.72;;;2.40;;
32932;SDS011;19444;50.518;10.870;2023-06-14T11:20:52;2.63;;;2.38;;
32932;SDS011;19444;50.518;10.870;2023-06-14T11:23:50;2.95;;;2.08;;
32932;SDS011;19444;50.518;10.870;2023-06-14T11:26:48;2.50;;;1.95;;
32932;SDS011;19444;50.518;10.870;2023-06-14T11:29:48;4.38;;;2.10;;
32932;SDS011;19444;50.518;10.870;2023-06-14T11:32:47;2.20;;;1.77;;
32932;SDS011;19444;50.518;10.870;2023-06-14T11:35:45;2.00;;;1.80;;
32932;SDS011;19444;50.518;10.870;2023-06-14T11:38:42;2.20;;;1.95;;
32932;SDS011;19444;50.518;10.870;2023-06-14T11:41:43;3.40;;;2.03;;
32932;SDS011;19444;50.518;10.870;2023-06-14T11:44:41;2.40;;;1.88;;
32932;SDS011;19444;50.518;10.870;2023-06-14T11:47:38;2.65;;;1.88;;
32932;SDS011;19444;50.518;10.870;2023-06-14T11:50:37;3.75;;;2.00;;
32932;SDS011;19444;50.518;10.870;2023-06-14T11:53:35;3.00;;;2.10;;
32932;SDS011;19444;50.518;10.870;2023-06-14T11:56:32;3.70;;;1.80;;
32932;SDS011;19444;50.518;10.870;2023-06-14T11:59:29;2.15;;;1.85;;
32932;SDS011;19444;50.518;10.870;2023-06-14T12:02:27;2.30;;;1.67;;
32932;SDS011;19444;50.518;10.870;2023-06-14T12:05:28;2.47;;;2.08;;
32932;SDS011;19444;50.518;10.870;2023-06-14T12:08:31;2.03;;;1.50;;
32932;SDS011;19444;50.518;10.870;2023-06-14T12:11:35;2.83;;;2.53;;
32932;SDS011;19444;50.518;10.870;2023-06-14T12:14:32;2.35;;;2.00;;
32932;SDS011;19444;50.518;10.870;2023-06-14T12:17:31;2.45;;;2.15;;
32932;SDS011;19444;50.518;10.870;2023-06-14T12:20:30;3.58;;;2.00;;
32932;SDS011;19444;50.518;10.870;2023-06-14T12:23:38;2.17;;;1.98;;
32932;SDS011;19444;50.518;10.870;2023-06-14T12:26:46;2.42;;;1.85;;
32932;SDS011;19444;50.518;10.870;2023-06-14T12:29:43;2.63;;;2.10;;
32932;SDS011;19444;50.518;10.870;2023-06-14T12:32:40;3.17;;;2.00;;
32932;SDS011;19444;50.518;10.870;2023-06-14T12:35:37;2.97;;;2.00;;
32932;SDS011;19444;50.518;10.870;2023-06-14T12:38:35;3.22;;;2.00;;
32932;SDS011;19444;50.518;10.870;2023-06-14T12:41:32;2.28;;;2.00;;
32932;SDS011;19444;50.518;10.870;2023-06-14T12:44:29;2.95;;;2.20;;
32932;SDS011;19444;50.518;10.870;2023-06-14T12:47:26;2.58;;;1.98;;
32932;SDS011;19444;50.518;10.870;2023-06-14T12:50:23;3.65;;;2.38;;
32932;SDS011;19444;50.518;10.870;2023-06-14T12:53:22;3.47;;;2.20;;
32932;SDS011;19444;50.518;10.870;2023-06-14T12:56:19;3.70;;;2.58;;
32932;SDS011;19444;50.518;10.870;2023-06-14T12:59:19;2.45;;;1.83;;
32932;SDS011;19444;50.518;10.870;2023-06-14T13:02:17;2.63;;;1.95;;
32932;SDS011;19444;50.518;10.870;2023-06-14T13:05:21;4.82;;;2.60;;
32932;SDS011;19444;50.518;10.870;2023-06-14T13:08:18;2.08;;;1.67;;
32932;SDS011;19444;50.518;10.870;2023-06-14T13:11:19;2.88;;;1.92;;
32932;SDS011;19444;50.518;10.870;2023-06-14T13:14:16;2.42;;;1.85;;
32932;SDS011;19444;50.518;10.870;2023-06-14T13:17:21;4.10;;;2.05;;
32932;SDS011;19444;50.518;10.870;2023-06-14T13:20:18;2.17;;;1.98;;
32932;SDS011;19444;50.518;10.870;2023-06-14T13:23:16;2.50;;;2.00;;
32932;SDS011;19444;50.518;10.870;2023-06-14T13:26:13;2.05;;;1.70;;
32932;SDS011;19444;50.518;10.870;2023-06-14T13:29:11;4.05;;;2.38;;
32932;SDS011;19444;50.518;10.870;2023-06-14T13:32:08;2.85;;;1.85;;
32932;SDS011;19444;50.518;10.870;2023-06-14T13:35:05;2.28;;;2.05;;
32932;SDS011;19444;50.518;10.870;2023-06-14T13:38:02;2.00;;;1.60;;
32932;SDS011;19444;50.518;10.870;2023-06-14T13:40:59;2.65;;;2.03;;
32932;SDS011;19444;50.518;10.870;2023-06-14T13:43:56;3.35;;;2.10;;
32932;SDS011;19444;50.518;10.870;2023-06-14T13:46:54;3.10;;;1.80;;
32932;SDS011;19444;50.518;10.870;2023-06-14T13:49:51;2.70;;;2.08;;
32932;SDS011;19444;50.518;10.870;2023-06-14T13:52:48;4.65;;;2.38;;
32932;SDS011;19444;50.518;10.870;2023-06-14T13:55:45;2.65;;;1.95;;
32932;SDS011;19444;50.518;10.870;2023-06-14T13:58:42;2.13;;;1.83;;
32932;SDS011;19444;50.518;10.870;2023-06-14T14:01:39;2.58;;;2.20;;
32932;SDS011;19444;50.518;10.870;2023-06-14T14:04:37;2.92;;;2.60;;
32932;SDS011;19444;50.518;10.870;2023-06-14T14:07:34;2.13;;;1.92;;
32932;SDS011;19444;50.518;10.870;2023-06-14T14:10:32;5.15;;;2.20;;
32932;SDS011;19444;50.518;10.870;2023-06-14T14:13:29;2.58;;;1.88;;
32932;SDS011;19444;50.518;10.870;2023-06-14T14:16:26;4.00;;;1.90;;
32932;SDS011;19444;50.518;10.870;2023-06-14T14:19:23;2.88;;;2.15;;
32932;SDS011;19444;50.518;10.870;2023-06-14T14:22:21;5.70;;;2.00;;
32932;SDS011;19444;50.518;10.870;2023-06-14T14:25:18;4.82;;;2.05;;
32932;SDS011;19444;50.518;10.870;2023-06-14T14:28:15;2.88;;;1.98;;
32932;SDS011;19444;50.518;10.870;2023-06-14T14:31:12;3.95;;;2.03;;
32932;SDS011;19444;50.518;10.870;2023-06-14T14:34:09;3.40;;;2.22;;
32932;SDS011;19444;50.518;10.870;2023-06-14T14:37:06;3.47;;;2.55;;
32932;SDS011;19444;50.518;10.870;2023-06-14T14:40:03;2.65;;;1.88;;
32932;SDS011;19444;50.518;10.870;2023-06-14T14:43:00;2.63;;;2.28;;
32932;SDS011;19444;50.518;10.870;2023-06-14T14:45:57;2.17;;;1.98;;
32932;SDS011;19444;50.518;10.870;2023-06-14T14:48:54;2.97;;;2.20;;
32932;SDS011;19444;50.518;10.870;2023-06-14T14:51:51;1.90;;;1.70;;
32932;SDS011;19444;50.518;10.870;2023-06-14T14:54:48;3.25;;;2.15;;
32932;SDS011;19444;50.518;10.870;2023-06-14T14:57:45;2.88;;;2.20;;
32932;SDS011;19444;50.518;10.870;2023-06-14T15:00:44;2.65;;;2.03;;
32932;SDS011;19444;50.518;10.870;2023-06-14T15:03:44;2.83;;;2.28;;
32932;SDS011;19444;50.518;10.870;2023-06-14T15:06:44;2.53;;;2.33;;
32932;SDS011;19444;50.518;10.870;2023-06-14T15:09:41;2.90;;;2.20;;
32932;SDS011;19444;50.518;10.870;2023-06-14T15:12:38;2.47;;;2.03;;
32932;SDS011;19444;50.518;10.870;2023-06-14T15:15:35;3.13;;;2.20;;
32932;SDS011;19444;50.518;10.870;2023-06-14T15:18:33;2.75;;;1.95;;
32932;SDS011;19444;50.518;10.870;2023-06-14T15:21:30;3.90;;;2.00;;
32932;SDS011;19444;50.518;10.870;2023-06-14T15:24:27;3.08;;;1.88;;
32932;SDS011;19444;50.518;10.870;2023-06-14T15:27:38;2.60;;;2.20;;
32932;SDS011;19444;50.518;10.870;2023-06-14T15:30:35;2.67;;;1.90;;
32932;SDS011;19444;50.518;10.870;2023-06-14T15:33:32;2.75;;;1.80;;
32932;SDS011;19444;50.518;10.870;2023-06-14T15:36:30;4.90;;;2.65;;
32932;SDS011;19444;50.518;10.870;2023-06-14T15:39:28;3.55;;;2.28;;
32932;SDS011;19444;50.518;10.870;2023-06-14T15:42:27;2.92;;;2.20;;
32932;SDS011;19444;50.518;10.870;2023-06-14T15:45:24;3.33;;;2.20;;
32932;SDS011;19444;50.518;10.870;2023-06-14T15:48:22;2.97;;;2.00;;
32932;SDS011;19444;50.518;10.870;2023-06-14T15:51:19;2.90;;;2.58;;
32932;SDS011;19444;50.518;10.870;2023-06-14T15:54:16;3.25;;;2.50;;
32932;SDS011;19444;50.518;10.870;2023-06-14T15:57:13;4.22;;;2.42;;
32932;SDS011;19444;50.518;10.870;2023-06-14T16:00:10;3.28;;;2.67;;
32932;SDS011;19444;50.518;10.870;2023-06-14T16:03:07;2.45;;;2.25;;
32932;SDS011;19444;50.518;10.870;2023-06-14T16:06:04;3.72;;;2.30;;
32932;SDS011;19444;50.518;10.870;2023-06-14T16:09:02;3.00;;;2.30;;
32932;SDS011;19444;50.518;10.870;2023-06-14T16:11:59;3.53;;;2.70;;
32932;SDS011;19444;50.518;10.870;2023-06-14T16:14:58;3.97;;;2.20;;
32932;SDS011;19444;50.518;10.870;2023-06-14T16:17:54;2.72;;;2.25;;
32932;SDS011;19444;50.518;10.870;2023-06-14T16:20:51;3.60;;;2.47;;
32932;SDS011;19444;50.518;10.870;2023-06-14T16:23:51;2.50;;;2.20;;
32932;SDS011;19444;50.518;10.870;2023-06-14T16:26:48;3.85;;;2.33;;
32932;SDS011;19444;50.518;10.870;2023-06-14T16:29:46;2.53;;;2.33;;
32932;SDS011;19444;50.518;10.870;2023-06-14T16:32:43;2.58;;;2.20;;
32932;SDS011;19444;50.518;10.870;2023-06-14T16:35:40;3.58;;;2.55;;
32932;SDS011;19444;50.518;10.870;2023-06-14T16:38:38;5.68;;;2.50;;
32932;SDS011;19444;50.518;10.870;2023-06-14T16:41:35;3.45;;;2.40;;
32932;SDS011;19444;50.518;10.870;2023-06-14T16:44:32;3.63;;;2.35;;
32932;SDS011;19444;50.518;10.870;2023-06-14T16:47:28;2.97;;;2.38;;
32932;SDS011;19444;50.518;10.870;2023-06-14T16:50:26;4.50;;;2.00;;
32932;SDS011;19444;50.518;10.870;2023-06-14T16:53:23;2.38;;;2.17;;
32932;SDS011;19444;50.518;10.870;2023-06-14T16:56:20;2.67;;;2.00;;
32932;SDS011;19444;50.518;10.870;2023-06-14T16:59:22;2.17;;;1.98;;
32932;SDS011;19444;50.518;10.870;2023-06-14T17:02:19;2.22;;;1.80;;
32932;SDS011;19444;50.518;10.870;2023-06-14T17:05:16;4.05;;;2.28;;
32932;SDS011;19444;50.518;10.870;2023-06-14T17:08:13;3.90;;;2.40;;
32932;SDS011;19444;50.518;10.870;2023-06-14T17:11:10;2.63;;;1.98;;
32932;SDS011;19444;50.518;10.870;2023-06-14T17:14:06;2.28;;;1.65;;
32932;SDS011;19444;50.518;10.870;2023-06-14T17:17:05;2.88;;;1.70;;
32932;SDS011;19444;50.518;10.870;2023-06-14T17:20:02;3.17;;;1.90;;
32932;SDS011;19444;50.518;10.870;2023-06-14T17:23:00;2.55;;;1.80;;
32932;SDS011;19444;50.518;10.870;2023-06-14T17:25:58;5.85;;;2.08;;
32932;SDS011;19444;50.518;10.870;2023-06-14T17:28:54;2.67;;;2.05;;
32932;SDS011;19444;50.518;10.870;2023-06-14T17:31:52;4.00;;;1.80;;
32932;SDS011;19444;50.518;10.870;2023-06-14T17:34:49;3.67;;;1.88;;
32932;SDS011;19444;50.518;10.870;2023-06-14T17:37:46;2.58;;;1.70;;
32932;SDS011;19444;50.518;10.870;2023-06-14T17:40:43;2.50;;;1.65;;
32932;SDS011;19444;50.518;10.870;2023-06-14T17:43:46;3.22;;;1.95;;
32932;SDS011;19444;50.518;10.870;2023-06-14T17:46:43;2.85;;;1.83;;
32932;SDS011;19444;50.518;10.870;2023-06-14T17:49:40;3.55;;;2.13;;
32932;SDS011;19444;50.518;10.870;2023-06-14T17:52:37;4.70;;;1.95;;